sensor_id;sensor_type;location;lat;lon;timestamp;pressure;altitude;pressure_sealevel;temperature;humidity
49044;BME280;34860;48.066;14.124;2023-05-13T00:00:28;96555.69;;;11.01;63.39
49044;BME280;34860;48.066;14.124;2023-05-13T00:03:19;96562.47;;;11.00;63.40
49044;BME280;34860;48.066;14.124;2023-05-13T00:06:13;96562.47;;;11.00;63.49
49044;BME280;34860;48.066;14.124;2023-05-13T00:09:05;96559.34;;;10.98;63.42
49044;BME280;34860;48.066;14.124;2023-05-13T00:11:56;96559.34;;;10.98;63.52
49044;BME280;34860;48.066;14.124;2023-05-13T00:14:51;96550.69;;;10.96;63.54
49044;BME280;34860;48.066;14.124;2023-05-13T00:17:40;96554.22;;;10.97;63.42
49044;BME280;34860;48.066;14.124;2023-05-13T00:20:28;96549.88;;;10.96;63.48
49044;BME280;34860;48.066;14.124;2023-05-13T00:23:17;96555.00;;;10.97;63.38
49044;BME280;34860;48.066;14.124;2023-05-13T00:26:06;96555.88;;;10.94;63.50
49044;BME280;34860;48.066;14.124;2023-05-13T00:28:56;96554.34;;;10.93;63.44
49044;BME280;34860;48.066;14.124;2023-05-13T00:31:47;96552.00;;;10.92;63.36
49044;BME280;34860;48.066;14.124;2023-05-13T00:34:39;96554.00;;;10.91;63.53
49044;BME280;34860;48.066;14.124;2023-05-13T00:37:27;96541.31;;;10.90;63.52
49044;BME280;34860;48.066;14.124;2023-05-13T00:40:22;96550.00;;;10.92;63.47
49044;BME280;34860;48.066;14.124;2023-05-13T00:43:12;96545.31;;;10.89;63.55
49044;BME280;34860;48.066;14.124;2023-05-13T00:46:00;96546.53;;;10.88;63.45
49044;BME280;34860;48.066;14.124;2023-05-13T00:48:52;96550.88;;;10.89;63.46
49044;BME280;34860;48.066;14.124;2023-05-13T00:51:45;96545.00;;;10.87;63.53
49044;BME280;34860;48.066;14.124;2023-05-13T00:54:33;96554.53;;;10.86;63.47
49044;BME280;34860;48.066;14.124;2023-05-13T00:57:22;96554.53;;;10.86;63.59
49044;BME280;34860;48.066;14.124;2023-05-13T01:00:12;96544.63;;;10.85;63.52
49044;BME280;34860;48.066;14.124;2023-05-13T01:03:05;96549.41;;;10.84;63.50
49044;BME280;34860;48.066;14.124;2023-05-13T01:06:04;96554.97;;;10.84;63.54
49044;BME280;34860;48.066;14.124;2023-05-13T01:09:04;96551.44;;;10.84;63.41
49044;BME280;34860;48.066;14.124;2023-05-13T01:12:02;96554.97;;;10.84;63.52
49044;BME280;34860;48.066;14.124;2023-05-13T01:15:04;96547.88;;;10.83;63.37
49044;BME280;34860;48.066;14.124;2023-05-13T01:17:59;96549.88;;;10.83;63.54
49044;BME280;34860;48.066;14.124;2023-05-13T01:20:52;96554.66;;;10.82;63.55
49044;BME280;34860;48.066;14.124;2023-05-13T01:23:46;96558.63;;;10.81;63.57
49044;BME280;34860;48.066;14.124;2023-05-13T01:26:35;96558.63;;;10.81;63.51
49044;BME280;34860;48.066;14.124;2023-05-13T01:29:25;96550.75;;;10.80;63.38
49044;BME280;34860;48.066;14.124;2023-05-13T01:32:18;96549.97;;;10.79;63.49
49044;BME280;34860;48.066;14.124;2023-05-13T01:35:09;96549.53;;;10.81;63.52
49044;BME280;34860;48.066;14.124;2023-05-13T01:38:05;96551.09;;;10.82;63.58
49044;BME280;34860;48.066;14.124;2023-05-13T01:40:56;96551.19;;;10.78;63.42
49044;BME280;34860;48.066;14.124;2023-05-13T01:43:48;96547.63;;;10.78;63.58
49044;BME280;34860;48.066;14.124;2023-05-13T01:46:41;96548.41;;;10.78;63.63
49044;BME280;34860;48.066;14.124;2023-05-13T01:49:31;96544.84;;;10.78;63.59
49044;BME280;34860;48.066;14.124;2023-05-13T01:52:22;96546.06;;;10.77;63.56
49044;BME280;34860;48.066;14.124;2023-05-13T01:55:13;96543.28;;;10.77;63.44
49044;BME280;34860;48.066;14.124;2023-05-13T01:58:08;96545.28;;;10.76;63.54
49044;BME280;34860;48.066;14.124;2023-05-13T02:01:00;96550.09;;;10.76;63.50
49044;BME280;34860;48.066;14.124;2023-05-13T02:03:56;96547.75;;;10.74;63.74
49044;BME280;34860;48.066;14.124;2023-05-13T02:06:44;96547.75;;;10.74;63.54
49044;BME280;34860;48.066;14.124;2023-05-13T02:09:35;96550.53;;;10.74;63.42
49044;BME280;34860;48.066;14.124;2023-05-13T02:12:25;96553.75;;;10.72;63.54
49044;BME280;34860;48.066;14.124;2023-05-13T02:15:19;96548.50;;;10.75;63.69
49044;BME280;34860;48.066;14.124;2023-05-13T02:18:09;96549.38;;;10.71;63.61
49044;BME280;34860;48.066;14.124;2023-05-13T02:20:57;96541.38;;;10.73;63.62
49044;BME280;34860;48.066;14.124;2023-05-13T02:23:48;96546.63;;;10.71;63.56
49044;BME280;34860;48.066;14.124;2023-05-13T02:26:36;96543.84;;;10.71;63.67
49044;BME280;34860;48.066;14.124;2023-05-13T02:29:27;96547.06;;;10.70;63.64
49044;BME280;34860;48.066;14.124;2023-05-13T02:32:18;96542.69;;;10.69;63.80
49044;BME280;34860;48.066;14.124;2023-05-13T02:35:07;96555.38;;;10.70;63.72
49044;BME280;34860;48.066;14.124;2023-05-13T02:37:56;96549.06;;;10.69;63.68
49044;BME280;34860;48.066;14.124;2023-05-13T02:40:55;96553.81;;;10.69;63.69
49044;BME280;34860;48.066;14.124;2023-05-13T02:43:46;96553.81;;;10.69;63.71
49044;BME280;34860;48.066;14.124;2023-05-13T02:46:38;96542.69;;;10.69;63.69
49044;BME280;34860;48.066;14.124;2023-05-13T02:49:29;96544.72;;;10.68;63.85
49044;BME280;34860;48.066;14.124;2023-05-13T02:52:18;96547.06;;;10.70;63.71
49044;BME280;34860;48.066;14.124;2023-05-13T02:55:08;96539.94;;;10.69;63.65
49044;BME280;34860;48.066;14.124;2023-05-13T02:57:57;96542.69;;;10.69;63.71
49044;BME280;34860;48.066;14.124;2023-05-13T03:00:46;96544.72;;;10.68;63.73
49044;BME280;34860;48.066;14.124;2023-05-13T03:03:35;96543.16;;;10.67;63.71
49044;BME280;34860;48.066;14.124;2023-05-13T03:06:26;96544.72;;;10.68;63.68
49044;BME280;34860;48.066;14.124;2023-05-13T03:09:14;96548.72;;;10.67;63.70
49044;BME280;34860;48.066;14.124;2023-05-13T03:12:04;96538.81;;;10.66;63.71
49044;BME280;34860;48.066;14.124;2023-05-13T03:14:56;96540.38;;;10.67;63.65
49044;BME280;34860;48.066;14.124;2023-05-13T03:17:45;96541.16;;;10.68;63.69
49044;BME280;34860;48.066;14.124;2023-05-13T03:20:34;96550.72;;;10.67;63.76
49044;BME280;34860;48.066;14.124;2023-05-13T03:23:25;96554.28;;;10.67;63.73
49044;BME280;34860;48.066;14.124;2023-05-13T03:26:16;96555.50;;;10.66;63.68
49044;BME280;34860;48.066;14.124;2023-05-13T03:29:07;96556.28;;;10.67;63.74
49044;BME280;34860;48.066;14.124;2023-05-13T03:31:57;96548.38;;;10.65;63.73
49044;BME280;34860;48.066;14.124;2023-05-13T03:34:46;96563.06;;;10.66;63.75
49044;BME280;34860;48.066;14.124;2023-05-13T03:37:35;96553.50;;;10.67;63.47
49044;BME280;34860;48.066;14.124;2023-05-13T03:40:27;96555.06;;;10.68;63.63
49044;BME280;34860;48.066;14.124;2023-05-13T03:43:16;96557.50;;;10.66;63.80
49044;BME280;34860;48.066;14.124;2023-05-13T03:46:10;96565.84;;;10.66;63.71
49044;BME280;34860;48.066;14.124;2023-05-13T03:48:59;96566.63;;;10.66;63.74
49044;BME280;34860;48.066;14.124;2023-05-13T03:51:47;96564.59;;;10.67;63.78
49044;BME280;34860;48.066;14.124;2023-05-13T03:54:37;96573.28;;;10.69;63.69
49044;BME280;34860;48.066;14.124;2023-05-13T03:57:29;96565.41;;;10.67;63.83
49044;BME280;34860;48.066;14.124;2023-05-13T04:00:24;96574.50;;;10.68;63.78
49044;BME280;34860;48.066;14.124;2023-05-13T04:03:15;96570.50;;;10.69;63.73
49044;BME280;34860;48.066;14.124;2023-05-13T04:06:05;96568.97;;;10.68;63.69
49044;BME280;34860;48.066;14.124;2023-05-13T04:08:53;96568.97;;;10.68;63.73
49044;BME280;34860;48.066;14.124;2023-05-13T04:11:44;96578.06;;;10.68;63.81
49044;BME280;34860;48.066;14.124;2023-05-13T04:14:36;96577.63;;;10.70;63.80
49044;BME280;34860;48.066;14.124;2023-05-13T04:17:26;96572.50;;;10.68;63.76
49044;BME280;34860;48.066;14.124;2023-05-13T04:20:15;96580.41;;;10.70;63.68
49044;BME280;34860;48.066;14.124;2023-05-13T04:23:07;96577.63;;;10.70;63.89
49044;BME280;34860;48.066;14.124;2023-05-13T04:25:59;96584.75;;;10.71;63.72
49044;BME280;34860;48.066;14.124;2023-05-13T04:28:48;96579.19;;;10.71;63.82
49044;BME280;34860;48.066;14.124;2023-05-13T04:31:40;96586.28;;;10.72;63.72
49044;BME280;34860;48.066;14.124;2023-05-13T04:34:32;96587.09;;;10.72;63.77
49044;BME280;34860;48.066;14.124;2023-05-13T04:37:24;96591.41;;;10.73;63.77
49044;BME280;34860;48.066;14.124;2023-05-13T04:40:17;96589.44;;;10.74;63.83
49044;BME280;34860;48.066;14.124;2023-05-13T04:43:12;96586.22;;;10.76;63.79
49044;BME280;34860;48.066;14.124;2023-05-13T04:46:08;96594.13;;;10.77;63.73
49044;BME280;34860;48.066;14.124;2023-05-13T04:49:00;96589.31;;;10.78;63.66
49044;BME280;34860;48.066;14.124;2023-05-13T04:51:49;96604.78;;;10.79;63.65
49044;BME280;34860;48.066;14.124;2023-05-13T04:54:38;96601.13;;;10.82;63.76
49044;BME280;34860;48.066;14.124;2023-05-13T04:57:27;96609.03;;;10.83;63.70
49044;BME280;34860;48.066;14.124;2023-05-13T05:00:19;96615.38;;;10.84;63.65
49044;BME280;34860;48.066;14.124;2023-05-13T05:03:11;96606.59;;;10.85;63.72
49044;BME280;34860;48.066;14.124;2023-05-13T05:06:02;96608.06;;;10.90;63.77
49044;BME280;34860;48.066;14.124;2023-05-13T05:08:51;96607.63;;;10.92;63.73
49044;BME280;34860;48.066;14.124;2023-05-13T05:11:40;96606.38;;;10.93;63.68
49044;BME280;34860;48.066;14.124;2023-05-13T05:14:28;96613.50;;;10.94;63.63
49044;BME280;34860;48.066;14.124;2023-05-13T05:17:18;96615.84;;;10.95;63.65
49044;BME280;34860;48.066;14.124;2023-05-13T05:20:08;96615.41;;;10.97;63.62
49044;BME280;34860;48.066;14.124;2023-05-13T05:23:01;96612.19;;;10.98;63.60
49044;BME280;34860;48.066;14.124;2023-05-13T05:25:51;96618.84;;;11.01;63.64
49044;BME280;34860;48.066;14.124;2023-05-13T05:28:44;96614.84;;;11.02;63.72
49044;BME280;34860;48.066;14.124;2023-05-13T05:31:36;96613.66;;;11.03;63.61
49044;BME280;34860;48.066;14.124;2023-05-13T05:34:28;96621.09;;;11.06;63.72
49044;BME280;34860;48.066;14.124;2023-05-13T05:37:20;96613.53;;;11.06;63.66
49044;BME280;34860;48.066;14.124;2023-05-13T05:40:11;96617.44;;;11.09;63.71
49044;BME280;34860;48.066;14.124;2023-05-13T05:43:00;96623.34;;;11.11;63.65
49044;BME280;34860;48.066;14.124;2023-05-13T05:45:48;96618.09;;;11.13;63.62
49044;BME280;34860;48.066;14.124;2023-05-13T05:48:42;96612.88;;;11.15;63.59
49044;BME280;34860;48.066;14.124;2023-05-13T05:51:34;96618.78;;;11.17;63.62
49044;BME280;34860;48.066;14.124;2023-05-13T05:54:25;96617.09;;;11.20;63.55
49044;BME280;34860;48.066;14.124;2023-05-13T05:57:19;96618.69;;;11.21;63.60
49044;BME280;34860;48.066;14.124;2023-05-13T06:00:11;96622.59;;;11.23;63.67
49044;BME280;34860;48.066;14.124;2023-05-13T06:03:03;96630.13;;;11.23;63.62
49044;BME280;34860;48.066;14.124;2023-05-13T06:05:51;96624.13;;;11.24;63.61
49044;BME280;34860;48.066;14.124;2023-05-13T06:08:40;96628.47;;;11.25;63.70
49044;BME280;34860;48.066;14.124;2023-05-13T06:11:29;96624.50;;;11.26;63.72
49044;BME280;34860;48.066;14.124;2023-05-13T06:14:19;96628.38;;;11.29;63.67
49044;BME280;34860;48.066;14.124;2023-05-13T06:17:08;96627.94;;;11.31;63.85
49044;BME280;34860;48.066;14.124;2023-05-13T06:20:00;96629.06;;;11.33;63.58
49044;BME280;34860;48.066;14.124;2023-05-13T06:22:49;96628.63;;;11.35;63.55
49044;BME280;34860;48.066;14.124;2023-05-13T06:25:39;96630.50;;;11.38;63.51
49044;BME280;34860;48.066;14.124;2023-05-13T06:28:27;96641.19;;;11.39;63.61
49044;BME280;34860;48.066;14.124;2023-05-13T06:31:19;96634.75;;;11.42;63.58
49044;BME280;34860;48.066;14.124;2023-05-13T06:34:10;96639.06;;;11.43;63.54
49044;BME280;34860;48.066;14.124;2023-05-13T06:37:04;96646.53;;;11.47;63.67
49044;BME280;34860;48.066;14.124;2023-05-13T06:39:54;96646.88;;;11.49;63.56
49044;BME280;34860;48.066;14.124;2023-05-13T06:42:47;96651.53;;;11.52;63.54
49044;BME280;34860;48.066;14.124;2023-05-13T06:45:47;96653.88;;;11.53;63.69
49044;BME280;34860;48.066;14.124;2023-05-13T06:48:37;96652.22;;;11.56;63.44
49044;BME280;34860;48.066;14.124;2023-05-13T06:51:26;96660.13;;;11.57;63.51
49044;BME280;34860;48.066;14.124;2023-05-13T06:54:17;96661.59;;;11.62;63.63
49044;BME280;34860;48.066;14.124;2023-05-13T06:57:08;96662.38;;;11.62;63.59
49044;BME280;34860;48.066;14.124;2023-05-13T06:59:56;96660.25;;;11.67;63.55
49044;BME280;34860;48.066;14.124;2023-05-13T07:02:52;96660.16;;;11.70;63.59
49044;BME280;34860;48.066;14.124;2023-05-13T07:05:42;96660.03;;;11.74;63.47
49044;BME280;34860;48.066;14.124;2023-05-13T07:08:31;96659.13;;;11.77;63.60
49044;BME280;34860;48.066;14.124;2023-05-13T07:11:21;96651.91;;;11.79;63.52
49044;BME280;34860;48.066;14.124;2023-05-13T07:14:10;96651.34;;;11.85;63.61
49044;BME280;34860;48.066;14.124;2023-05-13T07:16:58;96653.25;;;11.88;63.39
49044;BME280;34860;48.066;14.124;2023-05-13T07:19:54;96655.91;;;11.91;63.56
49044;BME280;34860;48.066;14.124;2023-05-13T07:22:44;96652.25;;;11.94;63.51
49044;BME280;34860;48.066;14.124;2023-05-13T07:25:33;96657.72;;;11.98;63.45
49044;BME280;34860;48.066;14.124;2023-05-13T07:28:22;96663.19;;;12.02;63.46
49044;BME280;34860;48.066;14.124;2023-05-13T07:31:11;96669.84;;;12.04;63.71
49044;BME280;34860;48.066;14.124;2023-05-13T07:34:04;96666.97;;;12.08;63.46
49044;BME280;34860;48.066;14.124;2023-05-13T07:36:54;96666.84;;;12.11;63.52
49044;BME280;34860;48.066;14.124;2023-05-13T07:39:45;96677.44;;;12.16;63.44
49044;BME280;34860;48.066;14.124;2023-05-13T07:42:36;96673.31;;;12.21;63.40
49044;BME280;34860;48.066;14.124;2023-05-13T07:45:26;96673.19;;;12.25;63.42
49044;BME280;34860;48.066;14.124;2023-05-13T07:48:15;96673.84;;;12.29;63.46
49044;BME280;34860;48.066;14.124;2023-05-13T07:51:04;96669.28;;;12.35;63.41
49044;BME280;34860;48.066;14.124;2023-05-13T07:53:54;96679.06;;;12.40;63.32
49044;BME280;34860;48.066;14.124;2023-05-13T07:56:44;96675.28;;;12.46;63.29
49044;BME280;34860;48.066;14.124;2023-05-13T07:59:35;96679.50;;;12.51;63.31
49044;BME280;34860;48.066;14.124;2023-05-13T08:02:23;96669.31;;;12.57;63.30
49044;BME280;34860;48.066;14.124;2023-05-13T08:05:12;96673.09;;;12.63;63.28
49044;BME280;34860;48.066;14.124;2023-05-13T08:08:00;96676.09;;;12.69;63.21
49044;BME280;34860;48.066;14.124;2023-05-13T08:10:52;96671.50;;;12.75;63.26
49044;BME280;34860;48.066;14.124;2023-05-13T08:13:42;96670.03;;;12.83;63.21
49044;BME280;34860;48.066;14.124;2023-05-13T08:16:33;96668.22;;;12.89;63.15
49044;BME280;34860;48.066;14.124;2023-05-13T08:19:22;96671.53;;;12.97;63.10
49044;BME280;34860;48.066;14.124;2023-05-13T08:22:17;96661.69;;;13.05;63.03
49044;BME280;34860;48.066;14.124;2023-05-13T08:25:10;96661.75;;;13.15;62.97
49044;BME280;34860;48.066;14.124;2023-05-13T08:27:58;96662.25;;;13.22;63.03
49044;BME280;34860;48.066;14.124;2023-05-13T08:30:49;96662.31;;;13.32;62.85
49044;BME280;34860;48.066;14.124;2023-05-13T08:33:40;96666.41;;;13.40;62.85
49044;BME280;34860;48.066;14.124;2023-05-13T08:36:32;96661.66;;;13.50;62.83
49044;BME280;34860;48.066;14.124;2023-05-13T08:39:20;96660.94;;;13.58;62.89
49044;BME280;34860;48.066;14.124;2023-05-13T08:42:12;96669.84;;;13.66;62.78
49044;BME280;34860;48.066;14.124;2023-05-13T08:45:10;96673.13;;;13.74;62.77
49044;BME280;34860;48.066;14.124;2023-05-13T08:48:01;96665.69;;;13.80;62.96
49044;BME280;34860;48.066;14.124;2023-05-13T08:50:50;96669.78;;;13.88;62.89
49044;BME280;34860;48.066;14.124;2023-05-13T08:53:40;96675.06;;;13.95;62.90
49044;BME280;34860;48.066;14.124;2023-05-13T08:56:30;96673.56;;;14.04;62.80
49044;BME280;34860;48.066;14.124;2023-05-13T08:59:20;96670.03;;;14.12;62.84
49044;BME280;34860;48.066;14.124;2023-05-13T09:02:11;96668.19;;;14.19;62.63
49044;BME280;34860;48.066;14.124;2023-05-13T09:05:05;96657.47;;;14.26;63.00
49044;BME280;34860;48.066;14.124;2023-05-13T09:07:54;96664.00;;;14.32;62.71
49044;BME280;34860;48.066;14.124;2023-05-13T09:10:43;96661.25;;;14.42;62.71
49044;BME280;34860;48.066;14.124;2023-05-13T09:13:33;96656.91;;;14.50;62.66
49044;BME280;34860;48.066;14.124;2023-05-13T09:16:24;96660.94;;;14.58;62.75
49044;BME280;34860;48.066;14.124;2023-05-13T09:19:14;96656.03;;;14.62;62.62
49044;BME280;34860;48.066;14.124;2023-05-13T09:22:15;96650.59;;;14.68;62.75
49044;BME280;34860;48.066;14.124;2023-05-13T09:25:04;96652.31;;;14.75;62.69
49044;BME280;34860;48.066;14.124;2023-05-13T09:27:57;96654.31;;;14.83;62.59
49044;BME280;34860;48.066;14.124;2023-05-13T09:30:53;96646.41;;;14.91;62.66
49044;BME280;34860;48.066;14.124;2023-05-13T09:33:51;96643.59;;;15.00;62.42
49044;BME280;34860;48.066;14.124;2023-05-13T09:36:40;96638.47;;;15.08;62.33
49044;BME280;34860;48.066;14.124;2023-05-13T09:39:32;96632.88;;;15.17;62.58
49044;BME280;34860;48.066;14.124;2023-05-13T09:42:22;96640.94;;;15.24;62.35
49044;BME280;34860;48.066;14.124;2023-05-13T09:45:12;96634.69;;;15.30;62.48
49044;BME280;34860;48.066;14.124;2023-05-13T09:48:01;96627.22;;;15.36;62.26
49044;BME280;34860;48.066;14.124;2023-05-13T09:50:51;96636.06;;;15.43;62.32
49044;BME280;34860;48.066;14.124;2023-05-13T09:53:41;96641.19;;;15.54;62.20
49044;BME280;34860;48.066;14.124;2023-05-13T09:56:33;96628.88;;;15.61;62.30
49044;BME280;34860;48.066;14.124;2023-05-13T09:59:22;96626.03;;;15.70;62.31
49044;BME280;34860;48.066;14.124;2023-05-13T10:02:13;96629.59;;;15.80;62.21
49044;BME280;34860;48.066;14.124;2023-05-13T10:05:07;96632.38;;;15.89;62.07
49044;BME280;34860;48.066;14.124;2023-05-13T10:07:59;96623.13;;;15.98;62.00
49044;BME280;34860;48.066;14.124;2023-05-13T10:10:49;96626.09;;;16.04;61.90
49044;BME280;34860;48.066;14.124;2023-05-13T10:13:49;96626.00;;;16.13;62.00
49044;BME280;34860;48.066;14.124;2023-05-13T10:16:42;96632.06;;;16.21;62.07
49044;BME280;34860;48.066;14.124;2023-05-13T10:19:34;96632.94;;;16.27;61.96
49044;BME280;34860;48.066;14.124;2023-05-13T10:22:26;96630.56;;;16.34;61.95
49044;BME280;34860;48.066;14.124;2023-05-13T10:25:17;96635.34;;;16.43;62.00
49044;BME280;34860;48.066;14.124;2023-05-13T10:28:10;96639.66;;;16.53;61.93
49044;BME280;34860;48.066;14.124;2023-05-13T10:31:00;96625.25;;;16.61;61.99
49044;BME280;34860;48.066;14.124;2023-05-13T10:33:52;96630.50;;;16.68;61.83
49044;BME280;34860;48.066;14.124;2023-05-13T10:36:55;96628.88;;;16.76;61.92
49044;BME280;34860;48.066;14.124;2023-05-13T10:40:05;96631.34;;;16.83;61.91
49044;BME280;34860;48.066;14.124;2023-05-13T10:43:14;96627.41;;;16.90;61.88
49044;BME280;34860;48.066;14.124;2023-05-13T10:46:11;96623.72;;;16.99;61.87
49044;BME280;34860;48.066;14.124;2023-05-13T10:49:00;96627.22;;;17.09;61.75
49044;BME280;34860;48.066;14.124;2023-05-13T10:51:49;96631.53;;;17.19;61.78
49044;BME280;34860;48.066;14.124;2023-05-13T10:54:39;96619.25;;;17.31;61.59
49044;BME280;34860;48.066;14.124;2023-05-13T10:57:35;96622.81;;;17.47;61.51
49044;BME280;34860;48.066;14.124;2023-05-13T11:00:29;96622.50;;;17.59;61.59
49044;BME280;34860;48.066;14.124;2023-05-13T11:03:28;96618.13;;;17.73;61.34
49044;BME280;34860;48.066;14.124;2023-05-13T11:06:22;96604.53;;;17.87;61.19
49044;BME280;34860;48.066;14.124;2023-05-13T11:09:14;96608.81;;;17.97;61.26
49044;BME280;34860;48.066;14.124;2023-05-13T11:12:03;96619.75;;;18.10;61.22
49044;BME280;34860;48.066;14.124;2023-05-13T11:14:55;96624.28;;;18.22;61.33
49044;BME280;34860;48.066;14.124;2023-05-13T11:17:44;96616.47;;;18.32;61.16
49044;BME280;34860;48.066;14.124;2023-05-13T11:20:39;96613.31;;;18.45;61.25
49044;BME280;34860;48.066;14.124;2023-05-13T11:23:50;96612.97;;;18.58;61.19
49044;BME280;34860;48.066;14.124;2023-05-13T11:26:44;96600.59;;;18.70;61.13
49044;BME280;34860;48.066;14.124;2023-05-13T11:29:34;96615.88;;;18.84;61.06
49044;BME280;34860;48.066;14.124;2023-05-13T11:32:52;96614.75;;;18.96;61.08
49044;BME280;34860;48.066;14.124;2023-05-13T11:35:52;96616.47;;;19.14;60.92
49044;BME280;34860;48.066;14.124;2023-05-13T11:38:43;96616.56;;;19.26;60.88
49044;BME280;34860;48.066;14.124;2023-05-13T11:41:35;96613.66;;;19.40;60.93
49044;BME280;34860;48.066;14.124;2023-05-13T11:44:24;96609.94;;;19.55;60.93
49044;BME280;34860;48.066;14.124;2023-05-13T11:47:13;96601.84;;;19.68;60.79
49044;BME280;34860;48.066;14.124;2023-05-13T11:50:16;96612.28;;;19.88;60.80
49044;BME280;34860;48.066;14.124;2023-05-13T11:53:07;96603.94;;;20.05;60.81
49044;BME280;34860;48.066;14.124;2023-05-13T11:56:07;96605.59;;;20.23;60.64
49044;BME280;34860;48.066;14.124;2023-05-13T11:59:11;96609.06;;;20.44;60.57
49044;BME280;34860;48.066;14.124;2023-05-13T12:02:02;96606.56;;;20.63;60.52
49044;BME280;34860;48.066;14.124;2023-05-13T12:04:58;96605.41;;;20.87;60.53
49044;BME280;34860;48.066;14.124;2023-05-13T12:07:49;96603.16;;;21.08;60.57
49044;BME280;34860;48.066;14.124;2023-05-13T12:10:43;96604.75;;;21.32;60.28
49044;BME280;34860;48.066;14.124;2023-05-13T12:13:32;96599.66;;;21.58;60.27
49044;BME280;34860;48.066;14.124;2023-05-13T12:16:23;96604.56;;;21.86;60.30
49044;BME280;34860;48.066;14.124;2023-05-13T12:19:13;96605.56;;;22.11;60.03
49044;BME280;34860;48.066;14.124;2023-05-13T12:22:04;96611.72;;;22.33;59.96
49044;BME280;34860;48.066;14.124;2023-05-13T12:24:53;96612.94;;;22.54;60.00
49044;BME280;34860;48.066;14.124;2023-05-13T12:27:52;96627.03;;;22.77;59.76
49044;BME280;34860;48.066;14.124;2023-05-13T12:30:44;96620.03;;;22.89;59.88
49044;BME280;34860;48.066;14.124;2023-05-13T12:33:41;96610.47;;;22.92;59.77
49044;BME280;34860;48.066;14.124;2023-05-13T12:36:35;96614.63;;;22.85;60.10
49044;BME280;34860;48.066;14.124;2023-05-13T12:39:27;96624.97;;;22.72;60.24
49044;BME280;34860;48.066;14.124;2023-05-13T12:42:17;96620.44;;;22.52;60.48
49044;BME280;34860;48.066;14.124;2023-05-13T12:45:08;96622.78;;;22.30;60.61
49044;BME280;34860;48.066;14.124;2023-05-13T12:47:58;96622.03;;;22.07;61.00
49044;BME280;34860;48.066;14.124;2023-05-13T12:50:46;96626.91;;;21.84;61.07
49044;BME280;34860;48.066;14.124;2023-05-13T12:53:37;96620.75;;;21.57;61.41
49044;BME280;34860;48.066;14.124;2023-05-13T12:56:26;96624.03;;;21.33;61.44
49044;BME280;34860;48.066;14.124;2023-05-13T12:59:15;96620.38;;;21.10;61.68
49044;BME280;34860;48.066;14.124;2023-05-13T13:02:11;96626.72;;;20.88;61.64
49044;BME280;34860;48.066;14.124;2023-05-13T13:05:00;96633.25;;;20.62;61.66
49044;BME280;34860;48.066;14.124;2023-05-13T13:07:49;96634.69;;;20.41;61.84
49044;BME280;34860;48.066;14.124;2023-05-13T13:10:39;96642.25;;;20.18;61.74
49044;BME280;34860;48.066;14.124;2023-05-13T13:13:28;96640.03;;;19.95;61.90
49044;BME280;34860;48.066;14.124;2023-05-13T13:16:16;96636.78;;;19.76;61.94
49044;BME280;34860;48.066;14.124;2023-05-13T13:19:07;96641.22;;;19.57;61.83
49044;BME280;34860;48.066;14.124;2023-05-13T13:21:55;96635.41;;;19.40;61.98
49044;BME280;34860;48.066;14.124;2023-05-13T13:24:44;96636.03;;;19.23;61.98
49044;BME280;34860;48.066;14.124;2023-05-13T13:27:33;96633.31;;;19.09;61.82
49044;BME280;34860;48.066;14.124;2023-05-13T13:30:22;96633.88;;;18.92;61.90
49044;BME280;34860;48.066;14.124;2023-05-13T13:33:15;96635.00;;;18.80;61.77
49044;BME280;34860;48.066;14.124;2023-05-13T13:36:08;96619.47;;;18.64;61.75
49044;BME280;34860;48.066;14.124;2023-05-13T13:38:58;96629.00;;;18.51;61.74
49044;BME280;34860;48.066;14.124;2023-05-13T13:41:47;96630.91;;;18.40;61.78
49044;BME280;34860;48.066;14.124;2023-05-13T13:44:38;96624.84;;;18.26;61.72
49044;BME280;34860;48.066;14.124;2023-05-13T13:47:28;96631.56;;;18.14;61.61
49044;BME280;34860;48.066;14.124;2023-05-13T13:50:17;96639.34;;;18.04;61.55
49044;BME280;34860;48.066;14.124;2023-05-13T13:53:08;96636.84;;;17.91;61.55
49044;BME280;34860;48.066;14.124;2023-05-13T13:55:56;96631.03;;;17.80;61.48
49044;BME280;34860;48.066;14.124;2023-05-13T13:58:49;96631.31;;;17.67;61.63
49044;BME280;34860;48.066;14.124;2023-05-13T14:01:37;96630.16;;;17.59;61.67
49044;BME280;34860;48.066;14.124;2023-05-13T14:04:27;96636.09;;;17.46;61.69
49044;BME280;34860;48.066;14.124;2023-05-13T14:07:18;96627.47;;;17.35;61.74
49044;BME280;34860;48.066;14.124;2023-05-13T14:10:14;96625.22;;;17.24;61.58
49044;BME280;34860;48.066;14.124;2023-05-13T14:13:03;96628.44;;;17.17;61.57
49044;BME280;34860;48.066;14.124;2023-05-13T14:15:51;96633.81;;;17.05;61.63
49044;BME280;34860;48.066;14.124;2023-05-13T14:18:40;96633.13;;;16.96;61.57
49044;BME280;34860;48.066;14.124;2023-05-13T14:21:30;96626.81;;;16.86;61.66
49044;BME280;34860;48.066;14.124;2023-05-13T14:24:22;96621.22;;;16.77;61.64
49044;BME280;34860;48.066;14.124;2023-05-13T14:27:12;96624.91;;;16.68;61.58
49044;BME280;34860;48.066;14.124;2023-05-13T14:30:02;96624.00;;;16.62;61.78
49044;BME280;34860;48.066;14.124;2023-05-13T14:32:52;96623.28;;;16.52;61.63
49044;BME280;34860;48.066;14.124;2023-05-13T14:35:42;96620.84;;;16.45;61.66
49044;BME280;34860;48.066;14.124;2023-05-13T14:38:31;96616.38;;;16.38;61.50
49044;BME280;34860;48.066;14.124;2023-05-13T14:41:25;96615.66;;;16.28;61.79
49044;BME280;34860;48.066;14.124;2023-05-13T14:44:19;96615.53;;;16.23;61.64
49044;BME280;34860;48.066;14.124;2023-05-13T14:47:08;96622.25;;;16.16;61.67
49044;BME280;34860;48.066;14.124;2023-05-13T14:49:59;96621.84;;;16.08;61.54
49044;BME280;34860;48.066;14.124;2023-05-13T14:52:48;96613.31;;;16.03;61.64
49044;BME280;34860;48.066;14.124;2023-05-13T14:55:36;96612.41;;;15.96;61.72